sensor_id;sensor_type;location;lat;lon;timestamp;P1;durP1;ratioP1;P2;durP2;ratioP2
2858;SDS011;1437;53.250;10.406;2023-03-19T00:02:15;7.53;;;3.80;;
2858;SDS011;1437;53.250;10.406;2023-03-19T00:04:42;6.30;;;4.00;;
2858;SDS011;1437;53.250;10.406;2023-03-19T00:07:10;5.07;;;3.20;;
2858;SDS011;1437;53.250;10.406;2023-03-19T00:09:38;4.60;;;3.40;;
2858;SDS011;1437;53.250;10.406;2023-03-19T00:12:07;4.90;;;3.60;;
2858;SDS011;1437;53.250;10.406;2023-03-19T00:14:35;6.47;;;4.40;;
2858;SDS011;1437;53.250;10.406;2023-03-19T00:17:02;7.03;;;4.60;;
2858;SDS011;1437;53.250;10.406;2023-03-19T00:19:30;7.83;;;5.43;;
2858;SDS011;1437;53.250;10.406;2023-03-19T00:21:57;5.10;;;3.90;;
2858;SDS011;1437;53.250;10.406;2023-03-19T00:24:25;6.90;;;4.43;;
2858;SDS011;1437;53.250;10.406;2023-03-19T00:26:53;6.10;;;3.87;;
2858;SDS011;1437;53.250;10.406;2023-03-19T00:29:22;7.53;;;4.07;;
2858;SDS011;1437;53.250;10.406;2023-03-19T00:31:49;5.60;;;4.27;;
2858;SDS011;1437;53.250;10.406;2023-03-19T00:34:17;5.90;;;3.57;;
2858;SDS011;1437;53.250;10.406;2023-03-19T00:36:45;5.57;;;3.80;;
2858;SDS011;1437;53.250;10.406;2023-03-19T00:39:13;5.33;;;3.43;;
2858;SDS011;1437;53.250;10.406;2023-03-19T00:41:40;4.40;;;3.00;;
2858;SDS011;1437;53.250;10.406;2023-03-19T00:44:17;5.77;;;3.30;;
2858;SDS011;1437;53.250;10.406;2023-03-19T00:46:46;3.80;;;3.03;;
2858;SDS011;1437;53.250;10.406;2023-03-19T00:49:14;5.23;;;3.50;;
2858;SDS011;1437;53.250;10.406;2023-03-19T00:51:41;4.20;;;3.73;;
2858;SDS011;1437;53.250;10.406;2023-03-19T00:54:10;4.40;;;3.70;;
2858;SDS011;1437;53.250;10.406;2023-03-19T00:56:38;5.33;;;3.70;;
2858;SDS011;1437;53.250;10.406;2023-03-19T00:59:07;5.10;;;3.73;;
2858;SDS011;1437;53.250;10.406;2023-03-19T01:01:34;5.97;;;3.70;;
2858;SDS011;1437;53.250;10.406;2023-03-19T01:04:03;6.63;;;4.13;;
2858;SDS011;1437;53.250;10.406;2023-03-19T01:06:32;9.27;;;5.17;;
2858;SDS011;1437;53.250;10.406;2023-03-19T01:09:00;6.77;;;4.30;;
2858;SDS011;1437;53.250;10.406;2023-03-19T01:11:28;7.10;;;3.97;;
2858;SDS011;1437;53.250;10.406;2023-03-19T01:13:56;6.43;;;4.73;;
2858;SDS011;1437;53.250;10.406;2023-03-19T01:16:30;4.53;;;3.53;;
2858;SDS011;1437;53.250;10.406;2023-03-19T01:18:58;6.63;;;4.20;;
2858;SDS011;1437;53.250;10.406;2023-03-19T01:21:27;5.70;;;4.03;;
2858;SDS011;1437;53.250;10.406;2023-03-19T01:23:55;7.13;;;4.70;;
2858;SDS011;1437;53.250;10.406;2023-03-19T01:26:23;5.90;;;4.50;;
2858;SDS011;1437;53.250;10.406;2023-03-19T01:28:51;5.93;;;4.57;;
2858;SDS011;1437;53.250;10.406;2023-03-19T01:31:19;5.10;;;4.33;;
2858;SDS011;1437;53.250;10.406;2023-03-19T01:33:47;5.57;;;4.60;;
2858;SDS011;1437;53.250;10.406;2023-03-19T01:36:14;6.77;;;4.43;;
2858;SDS011;1437;53.250;10.406;2023-03-19T01:38:43;6.00;;;5.20;;
2858;SDS011;1437;53.250;10.406;2023-03-19T01:41:11;6.37;;;4.83;;
2858;SDS011;1437;53.250;10.406;2023-03-19T01:43:38;6.60;;;5.50;;
2858;SDS011;1437;53.250;10.406;2023-03-19T01:46:06;9.30;;;5.90;;
2858;SDS011;1437;53.250;10.406;2023-03-19T01:48:38;10.30;;;6.00;;
2858;SDS011;1437;53.250;10.406;2023-03-19T01:51:07;8.30;;;5.80;;
2858;SDS011;1437;53.250;10.406;2023-03-19T01:53:36;9.20;;;7.27;;
2858;SDS011;1437;53.250;10.406;2023-03-19T01:56:07;10.87;;;7.70;;
2858;SDS011;1437;53.250;10.406;2023-03-19T01:58:36;8.70;;;7.40;;
2858;SDS011;1437;53.250;10.406;2023-03-19T02:01:04;9.20;;;7.70;;
2858;SDS011;1437;53.250;10.406;2023-03-19T02:03:32;10.80;;;8.20;;
2858;SDS011;1437;53.250;10.406;2023-03-19T02:06:00;8.53;;;7.17;;
2858;SDS011;1437;53.250;10.406;2023-03-19T02:08:28;10.70;;;8.07;;
2858;SDS011;1437;53.250;10.406;2023-03-19T02:10:57;10.20;;;8.37;;
2858;SDS011;1437;53.250;10.406;2023-03-19T02:13:27;10.93;;;8.07;;
2858;SDS011;1437;53.250;10.406;2023-03-19T02:15:54;13.23;;;9.33;;
2858;SDS011;1437;53.250;10.406;2023-03-19T02:18:22;11.83;;;8.90;;
2858;SDS011;1437;53.250;10.406;2023-03-19T02:20:52;12.93;;;9.87;;
2858;SDS011;1437;53.250;10.406;2023-03-19T02:23:25;13.10;;;10.60;;
2858;SDS011;1437;53.250;10.406;2023-03-19T02:26:00;15.97;;;10.30;;
2858;SDS011;1437;53.250;10.406;2023-03-19T02:28:29;13.60;;;10.60;;
2858;SDS011;1437;53.250;10.406;2023-03-19T02:30:59;14.10;;;10.50;;
2858;SDS011;1437;53.250;10.406;2023-03-19T02:33:27;16.20;;;11.73;;
2858;SDS011;1437;53.250;10.406;2023-03-19T02:35:54;16.70;;;11.67;;
2858;SDS011;1437;53.250;10.406;2023-03-19T02:38:23;17.70;;;12.83;;
2858;SDS011;1437;53.250;10.406;2023-03-19T02:40:51;14.37;;;11.00;;
2858;SDS011;1437;53.250;10.406;2023-03-19T02:43:21;16.33;;;11.67;;
2858;SDS011;1437;53.250;10.406;2023-03-19T02:45:49;17.97;;;12.90;;
2858;SDS011;1437;53.250;10.406;2023-03-19T02:48:16;15.20;;;11.33;;
2858;SDS011;1437;53.250;10.406;2023-03-19T02:50:44;16.10;;;12.20;;
2858;SDS011;1437;53.250;10.406;2023-03-19T02:53:12;15.43;;;12.30;;
2858;SDS011;1437;53.250;10.406;2023-03-19T02:55:40;14.70;;;11.83;;
2858;SDS011;1437;53.250;10.406;2023-03-19T02:58:07;15.73;;;12.53;;
2858;SDS011;1437;53.250;10.406;2023-03-19T03:00:36;16.87;;;12.83;;
2858;SDS011;1437;53.250;10.406;2023-03-19T03:03:04;16.33;;;11.47;;
2858;SDS011;1437;53.250;10.406;2023-03-19T03:05:33;18.27;;;13.03;;
2858;SDS011;1437;53.250;10.406;2023-03-19T03:08:00;18.77;;;13.80;;
2858;SDS011;1437;53.250;10.406;2023-03-19T03:10:28;18.93;;;14.53;;
2858;SDS011;1437;53.250;10.406;2023-03-19T03:12:56;15.17;;;12.90;;
2858;SDS011;1437;53.250;10.406;2023-03-19T03:15:23;20.40;;;13.63;;
2858;SDS011;1437;53.250;10.406;2023-03-19T03:17:52;20.90;;;13.53;;
2858;SDS011;1437;53.250;10.406;2023-03-19T03:20:20;16.60;;;13.20;;
2858;SDS011;1437;53.250;10.406;2023-03-19T03:22:48;22.73;;;15.00;;
2858;SDS011;1437;53.250;10.406;2023-03-19T03:25:16;19.20;;;13.37;;
2858;SDS011;1437;53.250;10.406;2023-03-19T03:27:44;19.73;;;14.03;;
2858;SDS011;1437;53.250;10.406;2023-03-19T03:30:11;15.20;;;13.43;;
2858;SDS011;1437;53.250;10.406;2023-03-19T03:32:40;17.37;;;13.70;;
2858;SDS011;1437;53.250;10.406;2023-03-19T03:35:09;18.07;;;14.80;;
2858;SDS011;1437;53.250;10.406;2023-03-19T03:37:37;19.50;;;14.20;;
2858;SDS011;1437;53.250;10.406;2023-03-19T03:40:05;16.77;;;13.60;;
2858;SDS011;1437;53.250;10.406;2023-03-19T03:42:34;20.43;;;15.27;;
2858;SDS011;1437;53.250;10.406;2023-03-19T03:45:02;18.37;;;13.60;;
2858;SDS011;1437;53.250;10.406;2023-03-19T03:47:30;16.30;;;12.90;;
2858;SDS011;1437;53.250;10.406;2023-03-19T03:49:57;19.20;;;14.43;;
2858;SDS011;1437;53.250;10.406;2023-03-19T03:52:26;19.60;;;14.27;;
2858;SDS011;1437;53.250;10.406;2023-03-19T03:54:55;17.97;;;14.33;;
2858;SDS011;1437;53.250;10.406;2023-03-19T03:57:23;19.50;;;13.60;;
2858;SDS011;1437;53.250;10.406;2023-03-19T03:59:51;18.80;;;14.30;;
2858;SDS011;1437;53.250;10.406;2023-03-19T04:02:19;17.67;;;14.67;;
2858;SDS011;1437;53.250;10.406;2023-03-19T04:04:46;17.03;;;13.73;;
2858;SDS011;1437;53.250;10.406;2023-03-19T04:07:14;18.10;;;13.70;;
2858;SDS011;1437;53.250;10.406;2023-03-19T04:09:43;17.97;;;13.77;;
2858;SDS011;1437;53.250;10.406;2023-03-19T04:12:11;21.33;;;14.90;;
2858;SDS011;1437;53.250;10.406;2023-03-19T04:14:38;18.60;;;14.33;;
2858;SDS011;1437;53.250;10.406;2023-03-19T04:17:06;18.07;;;13.90;;
2858;SDS011;1437;53.250;10.406;2023-03-19T04:19:34;17.10;;;14.13;;
2858;SDS011;1437;53.250;10.406;2023-03-19T04:22:01;20.90;;;14.50;;
2858;SDS011;1437;53.250;10.406;2023-03-19T04:24:28;21.77;;;14.90;;
2858;SDS011;1437;53.250;10.406;2023-03-19T04:26:59;19.20;;;14.60;;
2858;SDS011;1437;53.250;10.406;2023-03-19T04:29:27;17.93;;;13.67;;
2858;SDS011;1437;53.250;10.406;2023-03-19T04:31:54;21.80;;;16.27;;
2858;SDS011;1437;53.250;10.406;2023-03-19T04:34:22;18.63;;;14.27;;
2858;SDS011;1437;53.250;10.406;2023-03-19T04:36:49;20.97;;;14.47;;
2858;SDS011;1437;53.250;10.406;2023-03-19T04:39:17;19.10;;;14.60;;
2858;SDS011;1437;53.250;10.406;2023-03-19T04:41:44;18.30;;;14.80;;
2858;SDS011;1437;53.250;10.406;2023-03-19T04:44:13;17.37;;;14.20;;
2858;SDS011;1437;53.250;10.406;2023-03-19T04:46:42;16.40;;;14.60;;
2858;SDS011;1437;53.250;10.406;2023-03-19T04:49:10;17.73;;;14.47;;
2858;SDS011;1437;53.250;10.406;2023-03-19T04:51:38;21.87;;;16.47;;
2858;SDS011;1437;53.250;10.406;2023-03-19T04:54:06;21.67;;;16.00;;
2858;SDS011;1437;53.250;10.406;2023-03-19T04:56:35;21.37;;;15.37;;
2858;SDS011;1437;53.250;10.406;2023-03-19T04:59:02;19.30;;;14.20;;
2858;SDS011;1437;53.250;10.406;2023-03-19T05:01:32;17.97;;;14.80;;
2858;SDS011;1437;53.250;10.406;2023-03-19T05:03:59;19.53;;;14.43;;
2858;SDS011;1437;53.250;10.406;2023-03-19T05:06:28;18.73;;;13.97;;
2858;SDS011;1437;53.250;10.406;2023-03-19T05:08:57;22.47;;;15.77;;
2858;SDS011;1437;53.250;10.406;2023-03-19T05:11:25;22.20;;;14.93;;
2858;SDS011;1437;53.250;10.406;2023-03-19T05:13:52;22.73;;;14.80;;
2858;SDS011;1437;53.250;10.406;2023-03-19T05:16:20;19.80;;;13.97;;
2858;SDS011;1437;53.250;10.406;2023-03-19T05:18:49;22.67;;;15.40;;
2858;SDS011;1437;53.250;10.406;2023-03-19T05:21:17;18.80;;;15.20;;
2858;SDS011;1437;53.250;10.406;2023-03-19T05:23:46;19.90;;;14.90;;
2858;SDS011;1437;53.250;10.406;2023-03-19T05:26:16;21.90;;;16.37;;
2858;SDS011;1437;53.250;10.406;2023-03-19T05:28:44;19.20;;;15.20;;
2858;SDS011;1437;53.250;10.406;2023-03-19T05:31:11;21.67;;;15.47;;
2858;SDS011;1437;53.250;10.406;2023-03-19T05:33:39;17.77;;;14.60;;
2858;SDS011;1437;53.250;10.406;2023-03-19T05:36:08;19.77;;;15.50;;
2858;SDS011;1437;53.250;10.406;2023-03-19T05:38:36;19.20;;;15.87;;
2858;SDS011;1437;53.250;10.406;2023-03-19T05:41:05;17.90;;;14.87;;
2858;SDS011;1437;53.250;10.406;2023-03-19T05:43:33;18.53;;;14.73;;
2858;SDS011;1437;53.250;10.406;2023-03-19T05:46:01;20.00;;;15.17;;
2858;SDS011;1437;53.250;10.406;2023-03-19T05:48:29;22.80;;;15.97;;
2858;SDS011;1437;53.250;10.406;2023-03-19T05:50:56;23.20;;;16.20;;
2858;SDS011;1437;53.250;10.406;2023-03-19T05:53:25;18.33;;;14.60;;
2858;SDS011;1437;53.250;10.406;2023-03-19T05:55:53;19.93;;;16.03;;
2858;SDS011;1437;53.250;10.406;2023-03-19T05:58:21;18.97;;;15.07;;
2858;SDS011;1437;53.250;10.406;2023-03-19T06:00:50;19.30;;;16.03;;
2858;SDS011;1437;53.250;10.406;2023-03-19T06:03:17;20.80;;;14.90;;
2858;SDS011;1437;53.250;10.406;2023-03-19T06:05:47;21.67;;;16.77;;
2858;SDS011;1437;53.250;10.406;2023-03-19T06:08:15;19.53;;;15.27;;
2858;SDS011;1437;53.250;10.406;2023-03-19T06:10:44;18.90;;;15.40;;
2858;SDS011;1437;53.250;10.406;2023-03-19T06:13:12;17.07;;;13.70;;
2858;SDS011;1437;53.250;10.406;2023-03-19T06:15:39;20.73;;;14.17;;
2858;SDS011;1437;53.250;10.406;2023-03-19T06:18:06;19.70;;;14.07;;
2858;SDS011;1437;53.250;10.406;2023-03-19T06:20:34;17.60;;;14.70;;
2858;SDS011;1437;53.250;10.406;2023-03-19T06:23:01;19.33;;;14.60;;
2858;SDS011;1437;53.250;10.406;2023-03-19T06:25:29;20.87;;;15.03;;
2858;SDS011;1437;53.250;10.406;2023-03-19T06:27:58;17.00;;;14.70;;
2858;SDS011;1437;53.250;10.406;2023-03-19T06:30:26;19.50;;;14.33;;
2858;SDS011;1437;53.250;10.406;2023-03-19T06:32:53;19.10;;;16.17;;
2858;SDS011;1437;53.250;10.406;2023-03-19T06:35:21;20.50;;;14.70;;
2858;SDS011;1437;53.250;10.406;2023-03-19T06:37:52;20.13;;;16.23;;
2858;SDS011;1437;53.250;10.406;2023-03-19T06:40:20;21.67;;;15.10;;
2858;SDS011;1437;53.250;10.406;2023-03-19T06:42:47;18.17;;;13.77;;
2858;SDS011;1437;53.250;10.406;2023-03-19T06:45:18;20.60;;;15.47;;
2858;SDS011;1437;53.250;10.406;2023-03-19T06:47:45;19.93;;;14.13;;
2858;SDS011;1437;53.250;10.406;2023-03-19T06:50:13;19.83;;;15.10;;
2858;SDS011;1437;53.250;10.406;2023-03-19T06:52:42;19.57;;;15.00;;
2858;SDS011;1437;53.250;10.406;2023-03-19T06:55:10;18.07;;;13.10;;
2858;SDS011;1437;53.250;10.406;2023-03-19T06:57:37;19.03;;;14.37;;
2858;SDS011;1437;53.250;10.406;2023-03-19T07:00:05;15.90;;;13.00;;
2858;SDS011;1437;53.250;10.406;2023-03-19T07:02:37;19.63;;;14.53;;
2858;SDS011;1437;53.250;10.406;2023-03-19T07:05:05;15.83;;;13.30;;
2858;SDS011;1437;53.250;10.406;2023-03-19T07:07:32;18.70;;;13.20;;
2858;SDS011;1437;53.250;10.406;2023-03-19T07:10:02;15.93;;;11.80;;
2858;SDS011;1437;53.250;10.406;2023-03-19T07:12:30;13.47;;;11.20;;
2858;SDS011;1437;53.250;10.406;2023-03-19T07:14:58;18.53;;;13.30;;
2858;SDS011;1437;53.250;10.406;2023-03-19T07:17:27;17.37;;;12.27;;
2858;SDS011;1437;53.250;10.406;2023-03-19T07:19:56;14.63;;;12.37;;
2858;SDS011;1437;53.250;10.406;2023-03-19T07:22:23;15.70;;;11.30;;
2858;SDS011;1437;53.250;10.406;2023-03-19T07:24:50;16.57;;;12.20;;
2858;SDS011;1437;53.250;10.406;2023-03-19T07:27:18;15.37;;;12.53;;
2858;SDS011;1437;53.250;10.406;2023-03-19T07:29:46;16.43;;;12.20;;
2858;SDS011;1437;53.250;10.406;2023-03-19T07:32:13;13.43;;;11.20;;
2858;SDS011;1437;53.250;10.406;2023-03-19T07:34:41;12.90;;;11.50;;
2858;SDS011;1437;53.250;10.406;2023-03-19T07:37:10;15.77;;;11.10;;
2858;SDS011;1437;53.250;10.406;2023-03-19T07:39:37;15.20;;;11.10;;
2858;SDS011;1437;53.250;10.406;2023-03-19T07:42:05;15.23;;;10.80;;
2858;SDS011;1437;53.250;10.406;2023-03-19T07:44:33;16.80;;;10.60;;
2858;SDS011;1437;53.250;10.406;2023-03-19T07:47:00;13.47;;;9.80;;
2858;SDS011;1437;53.250;10.406;2023-03-19T07:49:28;11.70;;;10.27;;
2858;SDS011;1437;53.250;10.406;2023-03-19T07:51:55;12.10;;;9.23;;
2858;SDS011;1437;53.250;10.406;2023-03-19T07:54:24;11.37;;;9.30;;
2858;SDS011;1437;53.250;10.406;2023-03-19T07:56:52;13.67;;;9.97;;
2858;SDS011;1437;53.250;10.406;2023-03-19T07:59:20;10.30;;;9.20;;
2858;SDS011;1437;53.250;10.406;2023-03-19T08:01:47;10.60;;;8.10;;
2858;SDS011;1437;53.250;10.406;2023-03-19T08:04:15;9.20;;;8.20;;
2858;SDS011;1437;53.250;10.406;2023-03-19T08:06:42;11.77;;;7.67;;
2858;SDS011;1437;53.250;10.406;2023-03-19T08:09:10;12.20;;;8.47;;
2858;SDS011;1437;53.250;10.406;2023-03-19T08:11:41;9.50;;;7.20;;
2858;SDS011;1437;53.250;10.406;2023-03-19T08:14:08;8.87;;;7.30;;
2858;SDS011;1437;53.250;10.406;2023-03-19T08:16:36;9.23;;;6.63;;
2858;SDS011;1437;53.250;10.406;2023-03-19T08:19:04;7.40;;;6.70;;
2858;SDS011;1437;53.250;10.406;2023-03-19T08:21:32;10.40;;;7.30;;
2858;SDS011;1437;53.250;10.406;2023-03-19T08:23:59;7.37;;;6.47;;
2858;SDS011;1437;53.250;10.406;2023-03-19T08:26:27;7.93;;;6.60;;
2858;SDS011;1437;53.250;10.406;2023-03-19T08:28:58;7.33;;;6.27;;
2858;SDS011;1437;53.250;10.406;2023-03-19T08:31:26;8.53;;;6.63;;
2858;SDS011;1437;53.250;10.406;2023-03-19T08:33:54;8.30;;;7.13;;
2858;SDS011;1437;53.250;10.406;2023-03-19T08:36:24;8.50;;;6.00;;
2858;SDS011;1437;53.250;10.406;2023-03-19T08:38:52;8.07;;;5.43;;
2858;SDS011;1437;53.250;10.406;2023-03-19T08:41:23;9.23;;;6.87;;
2858;SDS011;1437;53.250;10.406;2023-03-19T08:43:50;6.10;;;5.50;;
2858;SDS011;1437;53.250;10.406;2023-03-19T08:46:19;7.47;;;5.47;;
2858;SDS011;1437;53.250;10.406;2023-03-19T08:48:47;5.57;;;4.80;;
2858;SDS011;1437;53.250;10.406;2023-03-19T08:51:14;7.93;;;5.30;;
2858;SDS011;1437;53.250;10.406;2023-03-19T08:53:42;9.87;;;6.30;;
2858;SDS011;1437;53.250;10.406;2023-03-19T08:56:10;9.37;;;5.90;;
2858;SDS011;1437;53.250;10.406;2023-03-19T08:58:38;6.33;;;4.77;;
2858;SDS011;1437;53.250;10.406;2023-03-19T09:01:07;11.33;;;5.90;;
2858;SDS011;1437;53.250;10.406;2023-03-19T09:03:44;7.47;;;4.60;;
2858;SDS011;1437;53.250;10.406;2023-03-19T09:06:12;7.03;;;5.50;;
2858;SDS011;1437;53.250;10.406;2023-03-19T09:08:40;10.30;;;4.20;;
2858;SDS011;1437;53.250;10.406;2023-03-19T09:11:11;9.00;;;4.87;;
2858;SDS011;1437;53.250;10.406;2023-03-19T09:13:41;5.87;;;4.60;;
2858;SDS011;1437;53.250;10.406;2023-03-19T09:16:08;6.90;;;3.70;;
2858;SDS011;1437;53.250;10.406;2023-03-19T09:18:36;6.47;;;4.60;;
2858;SDS011;1437;53.250;10.406;2023-03-19T09:21:08;5.87;;;3.70;;
2858;SDS011;1437;53.250;10.406;2023-03-19T09:23:36;8.83;;;3.17;;
2858;SDS011;1437;53.250;10.406;2023-03-19T09:26:04;3.80;;;2.83;;
2858;SDS011;1437;53.250;10.406;2023-03-19T09:28:31;8.60;;;4.20;;
2858;SDS011;1437;53.250;10.406;2023-03-19T09:30:59;6.50;;;2.93;;
2858;SDS011;1437;53.250;10.406;2023-03-19T09:33:31;6.20;;;3.87;;
2858;SDS011;1437;53.250;10.406;2023-03-19T09:35:59;4.43;;;3.10;;
2858;SDS011;1437;53.250;10.406;2023-03-19T09:38:28;5.60;;;3.07;;
2858;SDS011;1437;53.250;10.406;2023-03-19T09:41:01;6.70;;;3.40;;
2858;SDS011;1437;53.250;10.406;2023-03-19T09:46:17;8.90;;;3.20;;
2858;SDS011;1437;53.250;10.406;2023-03-19T09:48:46;4.37;;;2.50;;
2858;SDS011;1437;53.250;10.406;2023-03-19T09:51:17;3.60;;;2.83;;
2858;SDS011;1437;53.250;10.406;2023-03-19T09:53:48;5.67;;;3.37;;
2858;SDS011;1437;53.250;10.406;2023-03-19T09:56:17;6.57;;;2.90;;
2858;SDS011;1437;53.250;10.406;2023-03-19T09:58:45;7.50;;;3.13;;
2858;SDS011;1437;53.250;10.406;2023-03-19T10:01:20;5.50;;;3.03;;
2858;SDS011;1437;53.250;10.406;2023-03-19T10:03:53;4.33;;;2.80;;
2858;SDS011;1437;53.250;10.406;2023-03-19T10:06:27;11.30;;;3.20;;
2858;SDS011;1437;53.250;10.406;2023-03-19T10:09:02;9.07;;;3.37;;
2858;SDS011;1437;53.250;10.406;2023-03-19T10:11:36;4.20;;;3.03;;
2858;SDS011;1437;53.250;10.406;2023-03-19T10:14:11;5.30;;;2.63;;
2858;SDS011;1437;53.250;10.406;2023-03-19T10:16:41;5.83;;;3.50;;
2858;SDS011;1437;53.250;10.406;2023-03-19T10:19:11;7.00;;;2.67;;
2858;SDS011;1437;53.250;10.406;2023-03-19T10:21:42;5.67;;;3.00;;
2858;SDS011;1437;53.250;10.406;2023-03-19T10:24:12;7.27;;;2.93;;
2858;SDS011;1437;53.250;10.406;2023-03-19T10:26:42;5.73;;;2.70;;
2858;SDS011;1437;53.250;10.406;2023-03-19T10:29:10;4.47;;;2.67;;
2858;SDS011;1437;53.250;10.406;2023-03-19T10:31:41;5.13;;;2.60;;
2858;SDS011;1437;53.250;10.406;2023-03-19T10:34:15;5.47;;;2.63;;
2858;SDS011;1437;53.250;10.406;2023-03-19T10:36:56;7.50;;;2.70;;
2858;SDS011;1437;53.250;10.406;2023-03-19T10:39:25;7.90;;;2.77;;
2858;SDS011;1437;53.250;10.406;2023-03-19T10:41:56;4.23;;;2.73;;
2858;SDS011;1437;53.250;10.406;2023-03-19T10:44:27;4.83;;;2.80;;
2858;SDS011;1437;53.250;10.406;2023-03-19T10:46:56;6.03;;;3.17;;
2858;SDS011;1437;53.250;10.406;2023-03-19T10:49:24;7.50;;;4.77;;
2858;SDS011;1437;53.250;10.406;2023-03-19T10:51:52;4.87;;;2.77;;
2858;SDS011;1437;53.250;10.406;2023-03-19T10:54:23;5.80;;;2.50;;
2858;SDS011;1437;53.250;10.406;2023-03-19T10:56:55;4.87;;;3.23;;
2858;SDS011;1437;53.250;10.406;2023-03-19T10:59:23;4.17;;;1.70;;
2858;SDS011;1437;53.250;10.406;2023-03-19T11:01:55;6.87;;;2.20;;
2858;SDS011;1437;53.250;10.406;2023-03-19T11:04:23;5.10;;;1.90;;
2858;SDS011;1437;53.250;10.406;2023-03-19T11:06:53;4.27;;;1.93;;
2858;SDS011;1437;53.250;10.406;2023-03-19T11:09:23;4.23;;;1.80;;
2858;SDS011;1437;53.250;10.406;2023-03-19T11:11:57;6.20;;;2.40;;
2858;SDS011;1437;53.250;10.406;2023-03-19T11:14:28;5.00;;;2.10;;
2858;SDS011;1437;53.250;10.406;2023-03-19T11:17:01;5.13;;;2.03;;
2858;SDS011;1437;53.250;10.406;2023-03-19T11:19:30;5.10;;;2.80;;
2858;SDS011;1437;53.250;10.406;2023-03-19T11:22:00;4.57;;;2.07;;
2858;SDS011;1437;53.250;10.406;2023-03-19T11:24:30;5.13;;;2.00;;
2858;SDS011;1437;53.250;10.406;2023-03-19T11:26:59;11.47;;;5.30;;
2858;SDS011;1437;53.250;10.406;2023-03-19T11:29:27;3.13;;;2.17;;
2858;SDS011;1437;53.250;10.406;2023-03-19T11:31:57;3.10;;;1.90;;
2858;SDS011;1437;53.250;10.406;2023-03-19T11:34:30;3.57;;;1.60;;
2858;SDS011;1437;53.250;10.406;2023-03-19T11:37:03;2.83;;;1.20;;
2858;SDS011;1437;53.250;10.406;2023-03-19T11:39:35;3.67;;;1.20;;
2858;SDS011;1437;53.250;10.406;2023-03-19T11:42:18;3.63;;;1.73;;
2858;SDS011;1437;53.250;10.406;2023-03-19T11:44:52;5.20;;;2.57;;
2858;SDS011;1437;53.250;10.406;2023-03-19T11:47:24;2.93;;;1.43;;
2858;SDS011;1437;53.250;10.406;2023-03-19T11:50:05;5.10;;;2.40;;
2858;SDS011;1437;53.250;10.406;2023-03-19T11:52:52;5.53;;;2.37;;
2858;SDS011;1437;53.250;10.406;2023-03-19T11:55:24;2.70;;;1.30;;
2858;SDS011;1437;53.250;10.406;2023-03-19T11:58:03;3.53;;;1.20;;
2858;SDS011;1437;53.250;10.406;2023-03-19T12:00:34;4.33;;;1.63;;
2858;SDS011;1437;53.250;10.406;2023-03-19T12:05:52;3.10;;;1.20;;
2858;SDS011;1437;53.250;10.406;2023-03-19T12:08:27;2.33;;;1.33;;
2858;SDS011;1437;53.250;10.406;2023-03-19T12:11:00;4.80;;;1.67;;
2858;SDS011;1437;53.250;10.406;2023-03-19T12:13:33;5.00;;;1.30;;
2858;SDS011;1437;53.250;10.406;2023-03-19T12:16:14;3.70;;;1.73;;
